ATMO2: Muddy Boggy Creek at Atoka

Data processed at Sun May 28 2017 22:53


All information presented herein is the property of the government of the United States of America and may be revised or deleted at any time without prior notice.
Dissemination of this information without the expressed written consent of the Public Affairs Office, Tulsa District U.S. Army Corps of Engineers is strictly prohibited.
These data are gathered electronically and, as presented, have not undergone any form of quality control. These data are not guaranteed to be valid or correct.
Go to home page.
Go to station list.
Go to home page.

Downstream station:


Previous Day
Next Day
Current Day
    
SHEF ID:       ATMO2     Muddy Boggy Creek at Atoka, OK
STATION TYPE:  

               PRECIP     STAGE  RIV-FLOW   VOLTAGE
                   in        ft       cfs      volt
              Ccp-Rev   Ccp-Rev   Ccp-Rev   Ccp-Rev
(US/Central)
05/28 00:00      1.30     16.65       271     12.80
05/28 01:00      0.22     17.02       323     12.80
05/28 02:00      0.09     17.54       395     12.80
05/28 03:00      0.00     19.10       956     12.80
05/28 04:00      0.00     20.81      1927     12.80
05/28 05:00      0.00     22.12      2671     12.80
05/28 06:00      0.00     22.83      3074     12.70
05/28 07:00      0.00     23.10      3227     12.80
05/28 08:00      0.00     23.11      3233     13.20
05/28 09:00      0.00     23.03      3187     13.80
05/28 10:00      0.00     22.96      3148     14.00
05/28 11:00      0.00     22.89      3108     14.00
05/28 12:00      0.00     22.74      3023     13.90
05/28 13:00      0.00     22.49      2881     13.90
05/28 14:00      0.00     22.12      2671     13.90
05/28 15:00      0.00     21.71      2438     13.90
05/28 16:00      0.00     21.26      2183     14.10
05/28 17:00      0.00     20.83      1938     14.10
05/28 18:00      0.00     20.38      1683     14.10
05/28 19:00      0.00     19.99      1461     13.70
05/28 20:00      0.00     19.64      1263     13.00
05/28 21:00      0.00     19.32      1081     12.90
05/28 22:00      ----      ----      ----      ----
05/28 23:00      ----      ----      ----      ----